Time;durP1;ratioP1;P1;durP2;ratioP2;P2;SDS_P1;SDS_P2;PMS_P1;PMS_P2;Temp;Humidity;BMP_temperature;BMP_pressure;BME280_temperature;BME280_humidity;BME280_pressure;Samples;Min_cycle;Max_cycle;Signal;HPM_P1;HPM_P2
2023/05/16 00:02:04;;;;;;;14.53;13.33;;;;;;;;;;5010701;28;20517;-76
2023/05/16 00:04:32;;;;;;;12.60;11.50;;;;;;;;;;5010496;28;20549;-77
2023/05/16 00:06:59;;;;;;;13.90;12.80;;;;;;;;;;5010737;28;20447;-77
2023/05/16 00:09:26;;;;;;;13.40;12.40;;;;;;;;;;5010722;28;20977;-76
2023/05/16 00:11:53;;;;;;;13.87;12.63;;;;;;;;;;5011069;28;20455;-76
2023/05/16 00:14:25;;;;;;;14.70;13.40;;;;;;;;;;5010381;28;20816;-76
2023/05/16 00:16:52;;;;;;;12.93;11.90;;;;;;;;;;5010528;28;20518;-76
2023/05/16 00:19:19;;;;;;;14.80;12.37;;;;;;;;;;5010856;28;20481;-76
2023/05/16 00:21:46;;;;;;;13.67;12.47;;;;;;;;;;5010925;28;20483;-76
2023/05/16 00:24:13;;;;;;;13.60;12.30;;;;;;;;;;5010342;28;20860;-76
2023/05/16 00:26:40;;;;;;;13.53;12.43;;;;;;;;;;5010253;28;20892;-76
2023/05/16 00:29:08;;;;;;;13.27;12.07;;;;;;;;;;5010526;28;20877;-75
2023/05/16 00:31:36;;;;;;;14.00;12.80;;;;;;;;;;5010356;28;20831;-75
2023/05/16 00:34:03;;;;;;;15.33;13.53;;;;;;;;;;5010073;28;20554;-76
2023/05/16 00:36:30;;;;;;;14.63;13.40;;;;;;;;;;5010473;28;20975;-75
2023/05/16 00:38:57;;;;;;;15.63;13.70;;;;;;;;;;5010962;28;20570;-75
2023/05/16 00:41:25;;;;;;;14.70;13.40;;;;;;;;;;5010458;28;20462;-77
2023/05/16 00:43:52;;;;;;;16.67;15.27;;;;;;;;;;5010954;28;20451;-76
2023/05/16 00:46:19;;;;;;;16.83;15.23;;;;;;;;;;5010360;28;20529;-77
2023/05/16 00:48:47;;;;;;;17.50;15.80;;;;;;;;;;5010535;28;20872;-76
2023/05/16 00:51:14;;;;;;;17.90;16.20;;;;;;;;;;5014504;28;20497;-76
2023/05/16 00:53:41;;;;;;;17.20;15.57;;;;;;;;;;5014403;28;20446;-78
2023/05/16 00:56:08;;;;;;;20.93;18.90;;;;;;;;;;5014879;28;20501;-76
2023/05/16 00:58:36;;;;;;;20.67;18.57;;;;;;;;;;5014679;28;20450;-76
2023/05/16 01:01:03;;;;;;;18.10;16.43;;;;;;;;;;5015206;28;20492;-75
2023/05/16 01:03:31;;;;;;;19.70;17.90;;;;;;;;;;5015330;28;20458;-77
2023/05/16 01:05:59;;;;;;;19.13;17.43;;;;;;;;;;5014809;28;20573;-76
2023/05/16 01:08:26;;;;;;;20.37;18.27;;;;;;;;;;5015344;28;20546;-77
2023/05/16 01:10:58;;;;;;;20.23;18.33;;;;;;;;;;5014805;28;20826;-76
2023/05/16 01:13:28;;;;;;;20.33;18.43;;;;;;;;;;5013866;28;20482;-76
2023/05/16 01:16:00;;;;;;;21.73;19.60;;;;;;;;;;5013994;28;20451;-77
2023/05/16 01:18:31;;;;;;;20.60;18.70;;;;;;;;;;5014547;28;20436;-76
2023/05/16 01:21:02;;;;;;;22.37;20.13;;;;;;;;;;5013810;28;20435;-76
2023/05/16 01:23:37;;;;;;;23.87;21.43;;;;;;;;;;5013642;28;20451;-77
2023/05/16 01:26:13;;;;;;;24.80;22.37;;;;;;;;;;5013451;28;20482;-76
2023/05/16 01:28:41;;;;;;;25.63;23.20;;;;;;;;;;5013682;28;20458;-77
2023/05/16 01:31:09;;;;;;;28.40;25.50;;;;;;;;;;5013615;28;20445;-75
2023/05/16 01:33:36;;;;;;;26.30;23.47;;;;;;;;;;5012898;28;20454;-75
2023/05/16 01:36:06;;;;;;;25.27;22.87;;;;;;;;;;5013369;28;20452;-75
2023/05/16 01:38:37;;;;;;;28.07;25.13;;;;;;;;;;5013304;28;20494;-76
2023/05/16 01:41:09;;;;;;;29.17;26.17;;;;;;;;;;5013458;28;21128;-76
2023/05/16 01:43:44;;;;;;;28.10;25.17;;;;;;;;;;5013306;28;20435;-76
2023/05/16 01:46:12;;;;;;;31.57;27.37;;;;;;;;;;5013257;28;20484;-76
2023/05/16 01:48:43;;;;;;;30.63;26.47;;;;;;;;;;5012908;28;20459;-77
2023/05/16 01:51:11;;;;;;;31.97;28.53;;;;;;;;;;5013310;28;20467;-76
2023/05/16 01:53:39;;;;;;;31.00;27.80;;;;;;;;;;5012638;28;20547;-76
2023/05/16 01:56:09;;;;;;;33.90;28.47;;;;;;;;;;5012953;28;20801;-76
2023/05/16 01:58:38;;;;;;;32.57;29.40;;;;;;;;;;5012845;28;20451;-77
2023/05/16 02:01:06;;;;;;;33.07;29.47;;;;;;;;;;5012205;28;20839;-75
2023/05/16 02:03:33;;;;;;;33.27;29.77;;;;;;;;;;5013219;28;20478;-76
2023/05/16 02:06:00;;;;;;;32.90;29.50;;;;;;;;;;5013054;28;20502;-76
2023/05/16 02:08:28;;;;;;;38.47;32.70;;;;;;;;;;5012834;28;20513;-76
2023/05/16 02:10:55;;;;;;;35.33;30.97;;;;;;;;;;5012939;28;20451;-75
2023/05/16 02:13:22;;;;;;;36.80;30.50;;;;;;;;;;5012472;28;20860;-74
2023/05/16 02:15:51;;;;;;;34.30;30.60;;;;;;;;;;5012863;28;20502;-76
2023/05/16 02:18:18;;;;;;;36.57;32.47;;;;;;;;;;5012662;28;20466;-75
2023/05/16 02:20:46;;;;;;;36.53;32.63;;;;;;;;;;5012980;28;20468;-76
2023/05/16 02:23:13;;;;;;;37.67;30.20;;;;;;;;;;5015572;28;20554;-75
2023/05/16 02:25:40;;;;;;;36.87;32.87;;;;;;;;;;5014368;28;20482;-75
2023/05/16 02:28:07;;;;;;;35.90;32.00;;;;;;;;;;5013295;28;20444;-75
2023/05/16 02:30:34;;;;;;;36.17;31.80;;;;;;;;;;5013096;28;20546;-76
2023/05/16 02:33:02;;;;;;;37.03;32.70;;;;;;;;;;5015236;28;20953;-75
2023/05/16 02:35:30;;;;;;;39.50;33.03;;;;;;;;;;5015727;28;20435;-75
2023/05/16 02:37:57;;;;;;;38.70;32.60;;;;;;;;;;5015859;28;20505;-75
2023/05/16 02:40:24;;;;;;;40.10;32.97;;;;;;;;;;5012620;28;20459;-75
2023/05/16 02:42:51;;;;;;;38.47;33.03;;;;;;;;;;5011688;28;20932;-76
2023/05/16 02:45:18;;;;;;;40.30;32.77;;;;;;;;;;5013059;28;20479;-76
2023/05/16 02:47:45;;;;;;;40.90;34.70;;;;;;;;;;5012926;28;20506;-75
2023/05/16 02:50:13;;;;;;;39.60;32.30;;;;;;;;;;5012358;28;20540;-77
2023/05/16 02:52:40;;;;;;;41.67;33.40;;;;;;;;;;5011834;28;20831;-76
2023/05/16 02:55:08;;;;;;;41.20;33.47;;;;;;;;;;5012303;28;20450;-75
2023/05/16 02:57:35;;;;;;;42.40;35.07;;;;;;;;;;5011856;28;20969;-76
2023/05/16 03:00:04;;;;;;;43.43;34.90;;;;;;;;;;5012163;28;20518;-76
2023/05/16 03:02:31;;;;;;;41.23;32.63;;;;;;;;;;5012178;28;20451;-76
2023/05/16 03:04:58;;;;;;;40.53;33.50;;;;;;;;;;5012093;28;20471;-75
2023/05/16 03:07:27;;;;;;;43.60;36.10;;;;;;;;;;5011469;28;20510;-77
2023/05/16 03:09:54;;;;;;;43.83;34.87;;;;;;;;;;5011619;28;20456;-76
2023/05/16 03:12:21;;;;;;;42.53;34.30;;;;;;;;;;5011663;28;20447;-76
2023/05/16 03:14:48;;;;;;;43.40;34.90;;;;;;;;;;5011227;28;20474;-76
2023/05/16 03:17:15;;;;;;;44.67;35.27;;;;;;;;;;5011821;28;20454;-76
2023/05/16 03:19:42;;;;;;;42.77;33.40;;;;;;;;;;5012124;28;21015;-75
2023/05/16 03:22:09;;;;;;;45.60;34.60;;;;;;;;;;5019643;28;20452;-77
2023/05/16 03:24:37;;;;;;;45.83;36.90;;;;;;;;;;5024480;28;20440;-76
2023/05/16 03:27:05;;;;;;;45.67;36.37;;;;;;;;;;5015394;28;21104;-75
2023/05/16 03:29:32;;;;;;;46.10;36.63;;;;;;;;;;5011930;28;20467;-76
2023/05/16 03:31:59;;;;;;;50.57;38.67;;;;;;;;;;5011476;28;20908;-75
2023/05/16 03:34:27;;;;;;;50.17;37.37;;;;;;;;;;4999166;28;20993;-76
2023/05/16 03:36:54;;;;;;;49.27;38.13;;;;;;;;;;5011960;28;20443;-77
2023/05/16 03:39:21;;;;;;;48.17;38.57;;;;;;;;;;5011617;28;20467;-76
2023/05/16 03:41:50;;;;;;;48.30;37.63;;;;;;;;;;5011235;28;20451;-77
2023/05/16 03:44:17;;;;;;;51.57;38.93;;;;;;;;;;5011085;28;20818;-75
2023/05/16 03:46:44;;;;;;;48.53;37.90;;;;;;;;;;5011012;28;20479;-76
2023/05/16 03:49:11;;;;;;;50.90;40.17;;;;;;;;;;5010811;28;20463;-75
2023/05/16 03:51:38;;;;;;;58.27;41.00;;;;;;;;;;5010526;28;20526;-75
2023/05/16 03:54:06;;;;;;;54.60;42.47;;;;;;;;;;5011043;28;20501;-75
2023/05/16 03:56:33;;;;;;;59.53;41.37;;;;;;;;;;5011120;28;20488;-77
2023/05/16 03:59:01;;;;;;;50.00;38.30;;;;;;;;;;5010710;28;20980;-75
2023/05/16 04:01:28;;;;;;;58.53;41.87;;;;;;;;;;5011368;28;20514;-76
2023/05/16 04:03:55;;;;;;;54.33;39.67;;;;;;;;;;5010897;28;20563;-77
2023/05/16 04:06:22;;;;;;;56.20;41.17;;;;;;;;;;5010733;28;20501;-75
2023/05/16 04:08:49;;;;;;;50.97;39.13;;;;;;;;;;5011356;28;20459;-76
2023/05/16 04:11:16;;;;;;;57.63;40.20;;;;;;;;;;5011785;28;20543;-75
2023/05/16 04:13:43;;;;;;;58.23;43.20;;;;;;;;;;5011068;28;20514;-76
2023/05/16 04:16:12;;;;;;;58.97;40.90;;;;;;;;;;5011438;28;20510;-75
2023/05/16 04:18:39;;;;;;;52.90;39.90;;;;;;;;;;5012171;28;20463;-75
2023/05/16 04:21:06;;;;;;;53.53;40.40;;;;;;;;;;5016248;28;20786;-76
2023/05/16 04:23:33;;;;;;;51.73;41.97;;;;;;;;;;5018508;28;20455;-76
2023/05/16 04:26:00;;;;;;;54.43;40.60;;;;;;;;;;5017881;28;21006;-75
2023/05/16 04:28:27;;;;;;;54.13;40.40;;;;;;;;;;5018921;28;20435;-76
2023/05/16 04:30:54;;;;;;;56.97;40.37;;;;;;;;;;5015155;28;20864;-75
2023/05/16 04:33:23;;;;;;;59.20;42.60;;;;;;;;;;5011682;28;20535;-76
2023/05/16 04:35:51;;;;;;;54.77;40.20;;;;;;;;;;5011672;28;20439;-75
2023/05/16 04:38:18;;;;;;;52.60;41.17;;;;;;;;;;5011171;28;20455;-75
2023/05/16 04:40:45;;;;;;;59.80;41.90;;;;;;;;;;5010679;28;21004;-76
2023/05/16 04:43:12;;;;;;;52.63;39.50;;;;;;;;;;5011385;28;20447;-76
2023/05/16 04:45:41;;;;;;;51.97;39.53;;;;;;;;;;5011700;28;20565;-75
2023/05/16 04:48:08;;;;;;;60.37;41.13;;;;;;;;;;5011441;28;20454;-76
2023/05/16 04:50:37;;;;;;;52.30;40.20;;;;;;;;;;5010640;28;20463;-75
2023/05/16 04:53:04;;;;;;;59.00;41.60;;;;;;;;;;5010340;28;21146;-76
2023/05/16 04:55:31;;;;;;;55.50;41.67;;;;;;;;;;5011620;28;20450;-75
2023/05/16 04:57:58;;;;;;;59.33;41.70;;;;;;;;;;5010619;28;20447;-76
2023/05/16 05:00:25;;;;;;;60.33;41.60;;;;;;;;;;5010768;28;20463;-77
2023/05/16 05:02:53;;;;;;;55.00;41.50;;;;;;;;;;5010665;28;20458;-76
2023/05/16 05:05:20;;;;;;;56.90;40.23;;;;;;;;;;5010920;28;20538;-78
2023/05/16 05:07:48;;;;;;;49.50;39.23;;;;;;;;;;5011342;28;20562;-77
2023/05/16 05:10:15;;;;;;;59.20;40.57;;;;;;;;;;5010263;28;20498;-77
2023/05/16 05:12:42;;;;;;;59.90;42.57;;;;;;;;;;5010606;28;20513;-76
2023/05/16 05:15:09;;;;;;;55.40;41.17;;;;;;;;;;5010228;28;20455;-77
2023/05/16 05:17:37;;;;;;;55.20;40.00;;;;;;;;;;5011228;28;20439;-77
2023/05/16 05:20:06;;;;;;;55.67;40.63;;;;;;;;;;5011100;28;20920;-78
2023/05/16 05:22:33;;;;;;;53.83;39.87;;;;;;;;;;5011744;28;20534;-77
2023/05/16 05:25:01;;;;;;;52.30;38.43;;;;;;;;;;5010601;28;20454;-74
2023/05/16 05:27:28;;;;;;;54.53;38.73;;;;;;;;;;5010319;28;20574;-75
2023/05/16 05:29:55;;;;;;;56.30;39.40;;;;;;;;;;5011272;28;20471;-77
2023/05/16 05:32:22;;;;;;;57.63;38.50;;;;;;;;;;5010664;28;20484;-77
2023/05/16 05:34:49;;;;;;;52.97;40.33;;;;;;;;;;5010851;28;20933;-76
2023/05/16 05:37:16;;;;;;;53.63;39.63;;;;;;;;;;5013023;28;20498;-75
2023/05/16 05:39:43;;;;;;;53.70;37.87;;;;;;;;;;5013867;28;20468;-75
2023/05/16 05:42:12;;;;;;;53.00;40.00;;;;;;;;;;5014699;28;20535;-77
2023/05/16 05:44:39;;;;;;;55.63;40.37;;;;;;;;;;5013836;28;20944;-75
2023/05/16 05:47:06;;;;;;;53.27;39.17;;;;;;;;;;5014131;28;20487;-77
2023/05/16 05:49:34;;;;;;;52.47;40.10;;;;;;;;;;5014734;28;20475;-76
2023/05/16 05:52:01;;;;;;;54.83;38.87;;;;;;;;;;5014403;28;20988;-77
2023/05/16 05:54:30;;;;;;;53.27;37.80;;;;;;;;;;5014406;28;20471;-76
2023/05/16 05:56:57;;;;;;;53.10;38.90;;;;;;;;;;5014447;28;20819;-76
2023/05/16 05:59:26;;;;;;;54.03;38.67;;;;;;;;;;5013743;28;20529;-77
2023/05/16 06:01:53;;;;;;;54.50;36.70;;;;;;;;;;5013923;28;20447;-77
2023/05/16 06:04:20;;;;;;;51.70;37.87;;;;;;;;;;5013223;28;20447;-77
2023/05/16 06:06:47;;;;;;;48.20;37.03;;;;;;;;;;5013714;28;20515;-77
2023/05/16 06:09:14;;;;;;;45.83;36.03;;;;;;;;;;5012874;28;20475;-77
2023/05/16 06:11:42;;;;;;;48.50;37.20;;;;;;;;;;5014139;28;20451;-75
2023/05/16 06:14:09;;;;;;;54.00;38.73;;;;;;;;;;5013673;28;20566;-77
2023/05/16 06:16:39;;;;;;;46.07;36.23;;;;;;;;;;5014186;28;20471;-76
2023/05/16 06:19:06;;;;;;;49.70;37.87;;;;;;;;;;5013528;28;20474;-78
2023/05/16 06:21:33;;;;;;;46.23;36.83;;;;;;;;;;5014224;28;20451;-76
2023/05/16 06:24:00;;;;;;;47.07;36.53;;;;;;;;;;5014865;28;20443;-77
2023/05/16 06:26:27;;;;;;;43.70;35.77;;;;;;;;;;5014346;28;20514;-77
2023/05/16 06:28:54;;;;;;;42.50;34.57;;;;;;;;;;5015450;28;20980;-77
2023/05/16 06:31:21;;;;;;;42.80;34.70;;;;;;;;;;5015694;28;20447;-76
2023/05/16 06:33:49;;;;;;;42.07;34.77;;;;;;;;;;5016144;28;20486;-76
2023/05/16 06:36:16;;;;;;;42.97;33.40;;;;;;;;;;5020125;28;20444;-77
2023/05/16 06:38:44;;;;;;;42.50;34.67;;;;;;;;;;5014311;28;21060;-77
2023/05/16 06:41:11;;;;;;;40.93;32.20;;;;;;;;;;5012894;28;20455;-78
2023/05/16 06:43:38;;;;;;;40.67;33.70;;;;;;;;;;5012418;28;20502;-76
2023/05/16 06:46:05;;;;;;;45.07;33.87;;;;;;;;;;5012844;28;20447;-77
2023/05/16 06:48:32;;;;;;;45.30;33.97;;;;;;;;;;5012359;28;20456;-77
2023/05/16 06:51:00;;;;;;;43.23;34.77;;;;;;;;;;5013083;28;20447;-76
2023/05/16 06:53:28;;;;;;;40.47;32.20;;;;;;;;;;5012663;28;20455;-76
2023/05/16 06:55:55;;;;;;;42.33;31.50;;;;;;;;;;5014344;28;20435;-77
2023/05/16 06:58:22;;;;;;;37.93;31.83;;;;;;;;;;5019854;28;20443;-77
2023/05/16 07:00:50;;;;;;;36.00;30.90;;;;;;;;;;5013120;28;20829;-75
2023/05/16 07:03:17;;;;;;;35.97;32.03;;;;;;;;;;5019024;28;20470;-76
2023/05/16 07:05:44;;;;;;;33.10;28.60;;;;;;;;;;5023182;28;20447;-76
2023/05/16 07:08:12;;;;;;;37.50;29.70;;;;;;;;;;5026710;28;20506;-75
2023/05/16 07:10:39;;;;;;;35.80;29.27;;;;;;;;;;5020112;28;20464;-75
2023/05/16 07:13:07;;;;;;;32.40;28.90;;;;;;;;;;5024279;28;20474;-75
2023/05/16 07:15:34;;;;;;;31.50;27.47;;;;;;;;;;5022000;28;20478;-77
2023/05/16 07:18:01;;;;;;;32.67;27.10;;;;;;;;;;5022528;28;20474;-76
2023/05/16 07:20:28;;;;;;;32.80;26.60;;;;;;;;;;5019768;28;20968;-77
2023/05/16 07:22:56;;;;;;;30.23;27.07;;;;;;;;;;5011842;28;20499;-75
2023/05/16 07:25:24;;;;;;;27.80;24.80;;;;;;;;;;5011838;28;20458;-75
2023/05/16 07:27:51;;;;;;;24.83;22.13;;;;;;;;;;5011567;28;20518;-75
2023/05/16 07:30:19;;;;;;;22.33;20.13;;;;;;;;;;5011916;28;20471;-77
2023/05/16 07:32:46;;;;;;;19.87;17.77;;;;;;;;;;5011716;28;20497;-76
2023/05/16 07:35:13;;;;;;;18.70;16.80;;;;;;;;;;5012003;28;20459;-76
2023/05/16 07:37:42;;;;;;;18.73;16.73;;;;;;;;;;5011735;28;20613;-75
2023/05/16 07:40:10;;;;;;;18.40;16.67;;;;;;;;;;5011950;28;20478;-75
2023/05/16 07:42:38;;;;;;;17.07;15.47;;;;;;;;;;5011976;28;20487;-76
2023/05/16 07:45:06;;;;;;;17.60;15.90;;;;;;;;;;5012068;28;20517;-75
2023/05/16 07:47:33;;;;;;;16.40;14.90;;;;;;;;;;5011988;28;20517;-77
2023/05/16 07:50:00;;;;;;;16.87;15.30;;;;;;;;;;5012021;28;20467;-75
2023/05/16 07:52:27;;;;;;;17.47;15.00;;;;;;;;;;5011566;28;20447;-76
2023/05/16 07:54:54;;;;;;;14.67;13.37;;;;;;;;;;5011304;28;20510;-78
2023/05/16 07:57:21;;;;;;;15.97;14.47;;;;;;;;;;5011317;28;20936;-76
2023/05/16 07:59:51;;;;;;;15.47;14.07;;;;;;;;;;5011924;28;20503;-74
2023/05/16 08:02:18;;;;;;;16.50;14.90;;;;;;;;;;5012169;28;20554;-76
2023/05/16 08:04:45;;;;;;;16.47;14.93;;;;;;;;;;5011112;28;20485;-75
2023/05/16 08:07:12;;;;;;;16.63;15.03;;;;;;;;;;5011058;28;20478;-78
2023/05/16 08:09:39;;;;;;;16.30;14.80;;;;;;;;;;5011520;28;20475;-78
2023/05/16 08:12:06;;;;;;;16.63;15.00;;;;;;;;;;5011703;28;20450;-75
2023/05/16 08:14:33;;;;;;;16.13;14.63;;;;;;;;;;5011405;28;20447;-76
2023/05/16 08:17:02;;;;;;;15.37;13.90;;;;;;;;;;5011471;28;20978;-77
2023/05/16 08:19:31;;;;;;;16.00;14.50;;;;;;;;;;5015293;28;20463;-77
2023/05/16 08:21:58;;;;;;;16.57;15.07;;;;;;;;;;5011771;28;20447;-76
2023/05/16 08:24:25;;;;;;;17.30;15.63;;;;;;;;;;5011520;28;20553;-75
2023/05/16 08:26:52;;;;;;;17.50;15.80;;;;;;;;;;5011418;28;20483;-76
2023/05/16 08:29:19;;;;;;;17.17;15.60;;;;;;;;;;5012355;28;20467;-76
2023/05/16 08:31:47;;;;;;;16.30;14.60;;;;;;;;;;5010754;28;20439;-76
2023/05/16 08:34:15;;;;;;;16.97;15.37;;;;;;;;;;5010801;28;20900;-77
2023/05/16 08:36:42;;;;;;;18.00;16.30;;;;;;;;;;5011344;28;20451;-77
2023/05/16 08:39:10;;;;;;;17.57;15.77;;;;;;;;;;5012658;28;20471;-76
2023/05/16 08:41:37;;;;;;;19.00;16.90;;;;;;;;;;5011283;28;21008;-76
2023/05/16 08:44:04;;;;;;;17.27;15.57;;;;;;;;;;5011432;28;21011;-77
2023/05/16 08:46:34;;;;;;;18.90;16.90;;;;;;;;;;5010706;28;21135;-76
2023/05/16 08:49:03;;;;;;;19.20;17.20;;;;;;;;;;5010571;28;20471;-75
2023/05/16 08:51:34;;;;;;;19.17;17.20;;;;;;;;;;5010451;28;20443;-77
2023/05/16 08:54:04;;;;;;;20.37;18.37;;;;;;;;;;5010861;28;20451;-78
2023/05/16 08:56:32;;;;;;;19.53;17.67;;;;;;;;;;5013576;28;20446;-76
2023/05/16 08:58:59;;;;;;;21.77;18.70;;;;;;;;;;5011804;28;20491;-77
2023/05/16 09:01:26;;;;;;;21.77;19.47;;;;;;;;;;5011258;28;20890;-77
2023/05/16 09:03:54;;;;;;;20.47;18.50;;;;;;;;;;5011676;28;20875;-77
2023/05/16 09:06:23;;;;;;;20.13;18.13;;;;;;;;;;5012033;28;20447;-77
2023/05/16 09:08:52;;;;;;;22.07;19.73;;;;;;;;;;5011493;28;20492;-76
2023/05/16 09:11:20;;;;;;;20.73;18.53;;;;;;;;;;5014240;28;20447;-75
2023/05/16 09:13:47;;;;;;;21.87;19.40;;;;;;;;;;5015344;28;20459;-76
2023/05/16 09:16:15;;;;;;;20.73;18.53;;;;;;;;;;5015998;28;20539;-77
2023/05/16 09:18:43;;;;;;;21.97;19.80;;;;;;;;;;5014551;28;20887;-76
2023/05/16 09:21:11;;;;;;;21.07;18.87;;;;;;;;;;5015612;28;20448;-77
2023/05/16 09:23:38;;;;;;;22.87;20.47;;;;;;;;;;5014757;28;20451;-77
2023/05/16 09:26:07;;;;;;;21.57;19.37;;;;;;;;;;5018154;28;20497;-76
2023/05/16 09:28:35;;;;;;;23.40;21.00;;;;;;;;;;5015631;28;20467;-77
2023/05/16 09:31:02;;;;;;;23.50;21.00;;;;;;;;;;5026793;28;20470;-78
2023/05/16 09:33:30;;;;;;;22.20;19.80;;;;;;;;;;5037350;28;20504;-79
2023/05/16 09:35:57;;;;;;;22.93;20.53;;;;;;;;;;5037453;28;20452;-78
2023/05/16 09:38:25;;;;;;;25.40;21.40;;;;;;;;;;5032863;28;20443;-76
2023/05/16 09:40:52;;;;;;;26.07;23.43;;;;;;;;;;5017410;28;20529;-77
2023/05/16 09:43:22;;;;;;;24.40;21.80;;;;;;;;;;5015664;28;20466;-78
2023/05/16 09:45:49;;;;;;;23.40;21.00;;;;;;;;;;5015425;28;20529;-79
2023/05/16 09:48:17;;;;;;;23.67;21.20;;;;;;;;;;5016045;28;20545;-77
2023/05/16 09:50:48;;;;;;;25.17;22.50;;;;;;;;;;5018712;28;20483;-78
2023/05/16 09:53:15;;;;;;;23.60;21.20;;;;;;;;;;5015808;28;20443;-78
2023/05/16 09:55:42;;;;;;;22.93;20.57;;;;;;;;;;5015721;28;20447;-76
2023/05/16 09:58:09;;;;;;;23.97;21.43;;;;;;;;;;5015945;28;20493;-77
2023/05/16 10:00:38;;;;;;;24.57;22.00;;;;;;;;;;5015836;28;20643;-76
2023/05/16 10:03:26;;;;;;;24.73;20.93;;;;;;;;;;5016190;28;21038;-79
2023/05/16 10:05:53;;;;;;;24.13;21.53;;;;;;;;;;5016137;28;20439;-77
2023/05/16 10:08:21;;;;;;;24.77;22.10;;;;;;;;;;5016095;28;20915;-77
2023/05/16 10:10:51;;;;;;;25.27;22.63;;;;;;;;;;5015369;28;20470;-76
2023/05/16 10:13:19;;;;;;;24.43;21.83;;;;;;;;;;5014945;28;21013;-77
2023/05/16 10:15:48;;;;;;;25.03;21.33;;;;;;;;;;5015422;28;20578;-77
2023/05/16 10:18:17;;;;;;;25.70;21.97;;;;;;;;;;5015752;28;20440;-76
2023/05/16 10:20:47;;;;;;;25.03;21.73;;;;;;;;;;5015170;28;20463;-78
2023/05/16 10:23:17;;;;;;;24.83;21.70;;;;;;;;;;5014186;28;20463;-79
2023/05/16 10:25:45;;;;;;;24.40;21.03;;;;;;;;;;5015060;28;20443;-77
2023/05/16 10:28:13;;;;;;;22.87;20.50;;;;;;;;;;5015822;28;20483;-79
2023/05/16 10:30:42;;;;;;;21.00;18.80;;;;;;;;;;5015630;28;20490;-77
2023/05/16 10:33:12;;;;;;;21.83;19.63;;;;;;;;;;5014395;28;20451;-76
2023/05/16 10:35:39;;;;;;;24.60;19.73;;;;;;;;;;5015726;28;20799;-77
2023/05/16 10:38:08;;;;;;;24.93;20.73;;;;;;;;;;5015249;28;20526;-77
2023/05/16 10:40:35;;;;;;;21.87;19.60;;;;;;;;;;5013612;28;21192;-77
2023/05/16 10:43:03;;;;;;;22.47;20.07;;;;;;;;;;5013307;28;20478;-76
2023/05/16 10:45:30;;;;;;;24.20;19.90;;;;;;;;;;5014416;28;20534;-78
2023/05/16 10:47:58;;;;;;;27.03;19.73;;;;;;;;;;5017831;28;20499;-77
2023/05/16 10:50:33;;;;;;;20.80;18.60;;;;;;;;;;5019205;28;20566;-78
2023/05/16 10:53:11;;;;;;;20.80;18.53;;;;;;;;;;5016121;28;20530;-77
2023/05/16 10:55:39;;;;;;;22.97;18.57;;;;;;;;;;5013579;28;20443;-79
2023/05/16 10:58:07;;;;;;;19.30;17.23;;;;;;;;;;5014192;28;20447;-80
2023/05/16 11:00:34;;;;;;;20.47;16.70;;;;;;;;;;5014366;28;20813;-78
2023/05/16 11:03:05;;;;;;;18.03;16.13;;;;;;;;;;5013652;28;20550;-78
2023/05/16 11:05:34;;;;;;;17.70;15.80;;;;;;;;;;5013778;28;20443;-78
2023/05/16 11:08:04;;;;;;;20.07;16.33;;;;;;;;;;5013340;28;20489;-78
2023/05/16 11:10:31;;;;;;;18.37;16.40;;;;;;;;;;5013522;28;20554;-80
2023/05/16 11:13:03;;;;;;;21.70;16.60;;;;;;;;;;5013853;28;20447;-78
2023/05/16 11:15:33;;;;;;;20.70;16.27;;;;;;;;;;5014247;28;20506;-78
2023/05/16 11:18:07;;;;;;;17.40;15.50;;;;;;;;;;5014511;28;20436;-77
2023/05/16 11:20:36;;;;;;;19.97;16.80;;;;;;;;;;5014726;28;20462;-79
2023/05/16 11:23:20;;;;;;;19.33;17.20;;;;;;;;;;5014234;28;20459;-80
2023/05/16 11:25:49;;;;;;;18.97;16.00;;;;;;;;;;5013250;28;20530;-80
2023/05/16 11:28:18;;;;;;;16.33;14.07;;;;;;;;;;5013473;28;20870;-78
2023/05/16 11:30:45;;;;;;;16.70;14.30;;;;;;;;;;5012873;28;20463;-78
2023/05/16 11:33:13;;;;;;;15.30;13.70;;;;;;;;;;5011973;28;20955;-77
2023/05/16 11:35:41;;;;;;;14.10;12.60;;;;;;;;;;5013273;28;20539;-78
2023/05/16 11:38:15;;;;;;;15.20;13.60;;;;;;;;;;5014334;28;20462;-77
2023/05/16 11:40:43;;;;;;;14.33;12.60;;;;;;;;;;5014114;28;20451;-80
2023/05/16 11:43:10;;;;;;;12.63;11.33;;;;;;;;;;5014210;28;20871;-79
2023/05/16 11:45:37;;;;;;;14.10;12.30;;;;;;;;;;5013858;28;20479;-79
2023/05/16 11:48:05;;;;;;;11.57;10.43;;;;;;;;;;5013712;28;20475;-79
2023/05/16 11:50:34;;;;;;;14.73;12.20;;;;;;;;;;5013504;28;20475;-78
2023/05/16 11:53:02;;;;;;;13.27;11.97;;;;;;;;;;5012549;28;20885;-79
2023/05/16 11:55:31;;;;;;;13.50;11.80;;;;;;;;;;5007056;28;20443;-78
2023/05/16 11:57:58;;;;;;;12.73;11.47;;;;;;;;;;5012153;28;20534;-78
2023/05/16 12:00:26;;;;;;;14.13;12.40;;;;;;;;;;5012272;28;20586;-79
2023/05/16 12:02:54;;;;;;;13.27;11.50;;;;;;;;;;5012271;28;20824;-80
2023/05/16 12:05:24;;;;;;;13.63;11.80;;;;;;;;;;5012093;28;20447;-78
2023/05/16 12:07:53;;;;;;;12.97;11.73;;;;;;;;;;5012063;28;20440;-77
2023/05/16 12:10:21;;;;;;;13.67;12.33;;;;;;;;;;5013514;28;20845;-78
2023/05/16 12:12:50;;;;;;;13.50;11.40;;;;;;;;;;5012452;28;20529;-78
2023/05/16 12:15:17;;;;;;;13.27;12.00;;;;;;;;;;5012037;28;20451;-78
2023/05/16 12:17:44;;;;;;;11.97;10.80;;;;;;;;;;5011869;28;20551;-78
2023/05/16 12:20:13;;;;;;;13.17;11.70;;;;;;;;;;5010793;28;21340;-77
2023/05/16 12:22:40;;;;;;;14.00;12.60;;;;;;;;;;5010149;28;20498;-76
2023/05/16 12:25:24;;;;;;;13.07;10.17;;;;;;;;;;5011130;28;20488;-75
2023/05/16 12:27:53;;;;;;;11.40;10.20;;;;;;;;;;5014064;28;21007;-78
2023/05/16 12:30:22;;;;;;;10.27;9.37;;;;;;;;;;5017199;28;20471;-76
2023/05/16 12:32:53;;;;;;;9.50;8.53;;;;;;;;;;5017038;28;20502;-77
2023/05/16 12:35:20;;;;;;;9.30;8.40;;;;;;;;;;5014575;28;20447;-75
2023/05/16 12:37:47;;;;;;;7.43;6.73;;;;;;;;;;5011083;28;20451;-76
2023/05/16 12:40:14;;;;;;;7.80;7.07;;;;;;;;;;5011246;28;20470;-77
2023/05/16 12:42:45;;;;;;;7.43;6.80;;;;;;;;;;5010980;28;20443;-78
2023/05/16 12:45:16;;;;;;;7.53;6.83;;;;;;;;;;5011448;28;21023;-78
2023/05/16 12:47:43;;;;;;;7.43;6.73;;;;;;;;;;5015074;28;20542;-77
2023/05/16 12:50:15;;;;;;;7.37;6.67;;;;;;;;;;5014688;28;20491;-78
2023/05/16 12:52:49;;;;;;;7.13;6.43;;;;;;;;;;5015635;28;20451;-79
2023/05/16 12:55:16;;;;;;;7.47;6.87;;;;;;;;;;5016658;28;20474;-78
2023/05/16 12:57:44;;;;;;;7.50;6.90;;;;;;;;;;5016403;28;20944;-76
2023/05/16 13:00:13;;;;;;;7.40;6.70;;;;;;;;;;5014949;28;20467;-78
2023/05/16 13:02:40;;;;;;;7.60;6.90;;;;;;;;;;5014702;28;20525;-78
2023/05/16 13:05:09;;;;;;;6.97;6.43;;;;;;;;;;5014684;28;20505;-79
2023/05/16 13:07:36;;;;;;;6.83;6.33;;;;;;;;;;5015135;28;20443;-78
2023/05/16 13:10:05;;;;;;;6.13;5.63;;;;;;;;;;5014843;28;20848;-77
2023/05/16 13:12:32;;;;;;;6.47;5.83;;;;;;;;;;5014308;28;20447;-75
2023/05/16 13:14:59;;;;;;;6.57;5.80;;;;;;;;;;5014788;28;20454;-76
2023/05/16 13:17:29;;;;;;;6.70;6.13;;;;;;;;;;5014706;28;21002;-78
2023/05/16 13:19:56;;;;;;;5.70;5.17;;;;;;;;;;5014484;28;20498;-76
2023/05/16 13:22:23;;;;;;;5.70;5.30;;;;;;;;;;5014748;28;20509;-76
2023/05/16 13:24:50;;;;;;;5.60;5.20;;;;;;;;;;5013671;28;20447;-76
2023/05/16 13:27:17;;;;;;;5.83;5.33;;;;;;;;;;5014355;28;20486;-77
2023/05/16 13:29:44;;;;;;;5.20;4.80;;;;;;;;;;5014140;28;20578;-78
2023/05/16 13:32:11;;;;;;;5.40;4.60;;;;;;;;;;5014002;28;20871;-76
2023/05/16 13:34:40;;;;;;;4.50;4.20;;;;;;;;;;5013830;28;20442;-76
2023/05/16 13:37:07;;;;;;;4.23;4.00;;;;;;;;;;5014300;28;20834;-77
2023/05/16 13:39:33;;;;;;;8.77;5.07;;;;;;;;;;5013773;28;20590;-76
2023/05/16 13:42:02;;;;;;;10.27;4.30;;;;;;;;;;5013734;28;21037;-77
2023/05/16 13:44:29;;;;;;;5.27;4.60;;;;;;;;;;5014899;28;20482;-78
2023/05/16 13:46:56;;;;;;;4.40;4.07;;;;;;;;;;5016138;28;20444;-77
2023/05/16 13:49:23;;;;;;;3.80;3.60;;;;;;;;;;5014957;28;20530;-78
2023/05/16 13:51:52;;;;;;;4.97;4.57;;;;;;;;;;5014781;28;20451;-77
2023/05/16 13:54:20;;;;;;;5.50;5.00;;;;;;;;;;5013875;28;20949;-77
2023/05/16 13:56:47;;;;;;;4.67;4.37;;;;;;;;;;5014330;28;20451;-77
2023/05/16 13:59:14;;;;;;;4.70;4.30;;;;;;;;;;5019646;28;20478;-77
2023/05/16 14:01:41;;;;;;;5.43;4.77;;;;;;;;;;5018800;28;20452;-77
2023/05/16 14:04:08;;;;;;;4.60;4.30;;;;;;;;;;5013526;28;20459;-77
2023/05/16 14:06:36;;;;;;;5.27;4.20;;;;;;;;;;5014691;28;20497;-77
2023/05/16 14:09:05;;;;;;;8.97;4.83;;;;;;;;;;5013389;28;20582;-77
2023/05/16 14:11:32;;;;;;;4.77;4.40;;;;;;;;;;5013322;28;20443;-78
2023/05/16 14:13:59;;;;;;;4.60;4.30;;;;;;;;;;5013586;28;20513;-77
2023/05/16 14:16:26;;;;;;;4.60;4.20;;;;;;;;;;5014077;28;20454;-78
2023/05/16 14:18:53;;;;;;;5.80;5.30;;;;;;;;;;5013374;28;20529;-78
2023/05/16 14:21:20;;;;;;;4.67;4.30;;;;;;;;;;5013621;28;20525;-78
2023/05/16 14:23:48;;;;;;;4.77;4.47;;;;;;;;;;5013251;28;20502;-77
2023/05/16 14:26:17;;;;;;;8.43;4.50;;;;;;;;;;5014252;28;21033;-78